sensor_id;sensor_type;location;lat;lon;timestamp;P1;durP1;ratioP1;P2;durP2;ratioP2
70014;SDS011;57358;51.094;6.760;2024-01-10T00:01:34;7.1;;;15;;
70014;SDS011;57358;51.094;6.760;2024-01-10T00:06:32;6;;;13;;
70014;SDS011;57358;51.094;6.760;2024-01-10T00:11:31;6.7;;;15.1;;
70014;SDS011;57358;51.094;6.760;2024-01-10T00:16:30;6.7;;;15.2;;
70014;SDS011;57358;51.094;6.760;2024-01-10T00:21:29;6.5;;;15.1;;
70014;SDS011;57358;51.094;6.760;2024-01-10T00:26:28;6.8;;;16.2;;
70014;SDS011;57358;51.094;6.760;2024-01-10T00:31:27;6.8;;;18;;
70014;SDS011;57358;51.094;6.760;2024-01-10T00:36:26;6.5;;;15.9;;
70014;SDS011;57358;51.094;6.760;2024-01-10T00:41:24;6.3;;;11.3;;
70014;SDS011;57358;51.094;6.760;2024-01-10T00:46:23;6.1;;;13.6;;
70014;SDS011;57358;51.094;6.760;2024-01-10T00:51:22;7;;;16;;
70014;SDS011;57358;51.094;6.760;2024-01-10T00:56:21;6.8;;;15.4;;
70014;SDS011;57358;51.094;6.760;2024-01-10T01:01:20;7;;;12.7;;
70014;SDS011;57358;51.094;6.760;2024-01-10T01:06:18;6.8;;;18.9;;
70014;SDS011;57358;51.094;6.760;2024-01-10T01:11:17;6.8;;;14.3;;
70014;SDS011;57358;51.094;6.760;2024-01-10T01:16:16;6.5;;;20;;
70014;SDS011;57358;51.094;6.760;2024-01-10T01:21:15;7.1;;;15.4;;
70014;SDS011;57358;51.094;6.760;2024-01-10T01:26:14;6.4;;;15;;
70014;SDS011;57358;51.094;6.760;2024-01-10T01:31:13;7.2;;;15.5;;
70014;SDS011;57358;51.094;6.760;2024-01-10T01:36:11;6.6;;;10.3;;
70014;SDS011;57358;51.094;6.760;2024-01-10T01:41:10;6.9;;;19.6;;
70014;SDS011;57358;51.094;6.760;2024-01-10T01:46:09;6.1;;;12.4;;
70014;SDS011;57358;51.094;6.760;2024-01-10T01:51:08;6.8;;;16.4;;
70014;SDS011;57358;51.094;6.760;2024-01-10T01:56:07;6.8;;;13.7;;
70014;SDS011;57358;51.094;6.760;2024-01-10T02:01:06;6.5;;;13.3;;
70014;SDS011;57358;51.094;6.760;2024-01-10T02:06:04;6.7;;;12;;
70014;SDS011;57358;51.094;6.760;2024-01-10T02:11:04;6.5;;;14.7;;
70014;SDS011;57358;51.094;6.760;2024-01-10T02:16:03;6.9;;;16.6;;
70014;SDS011;57358;51.094;6.760;2024-01-10T02:21:01;7.4;;;15.6;;
70014;SDS011;57358;51.094;6.760;2024-01-10T02:26:00;7;;;18.9;;
70014;SDS011;57358;51.094;6.760;2024-01-10T02:30:59;7.1;;;13;;
70014;SDS011;57358;51.094;6.760;2024-01-10T02:35:58;6.2;;;14.4;;
70014;SDS011;57358;51.094;6.760;2024-01-10T02:40:56;7.2;;;15.7;;
70014;SDS011;57358;51.094;6.760;2024-01-10T02:45:55;6;;;12.8;;
70014;SDS011;57358;51.094;6.760;2024-01-10T02:50:54;7.1;;;15.7;;
70014;SDS011;57358;51.094;6.760;2024-01-10T02:55:53;6.3;;;15.4;;
70014;SDS011;57358;51.094;6.760;2024-01-10T03:00:52;6.6;;;13.2;;
70014;SDS011;57358;51.094;6.760;2024-01-10T03:05:51;6.4;;;16.3;;
70014;SDS011;57358;51.094;6.760;2024-01-10T03:10:50;7.1;;;12.9;;
70014;SDS011;57358;51.094;6.760;2024-01-10T03:15:48;6;;;10.2;;
70014;SDS011;57358;51.094;6.760;2024-01-10T03:20:47;7;;;15.4;;
70014;SDS011;57358;51.094;6.760;2024-01-10T03:25:46;6.5;;;15.2;;
70014;SDS011;57358;51.094;6.760;2024-01-10T03:30:45;6.9;;;17.4;;
70014;SDS011;57358;51.094;6.760;2024-01-10T03:35:44;6.5;;;14.8;;
70014;SDS011;57358;51.094;6.760;2024-01-10T03:40:43;6;;;13.8;;
70014;SDS011;57358;51.094;6.760;2024-01-10T03:45:42;6.2;;;15.8;;
70014;SDS011;57358;51.094;6.760;2024-01-10T03:50:40;6.4;;;14.9;;
70014;SDS011;57358;51.094;6.760;2024-01-10T03:55:39;6.5;;;14.7;;
70014;SDS011;57358;51.094;6.760;2024-01-10T04:00:38;7.3;;;18.4;;
70014;SDS011;57358;51.094;6.760;2024-01-10T04:05:37;6.6;;;17.1;;
70014;SDS011;57358;51.094;6.760;2024-01-10T04:10:36;5.9;;;11.6;;
70014;SDS011;57358;51.094;6.760;2024-01-10T04:15:35;6.8;;;13.5;;
70014;SDS011;57358;51.094;6.760;2024-01-10T04:20:33;7;;;15.7;;
70014;SDS011;57358;51.094;6.760;2024-01-10T04:25:32;7.1;;;17.2;;
70014;SDS011;57358;51.094;6.760;2024-01-10T04:30:31;6;;;13;;
70014;SDS011;57358;51.094;6.760;2024-01-10T04:35:30;6.6;;;15.3;;
70014;SDS011;57358;51.094;6.760;2024-01-10T04:40:29;6.1;;;15.6;;
70014;SDS011;57358;51.094;6.760;2024-01-10T04:45:28;5.5;;;13;;
70014;SDS011;57358;51.094;6.760;2024-01-10T04:50:26;6.2;;;11.9;;
70014;SDS011;57358;51.094;6.760;2024-01-10T04:55:25;5.9;;;13.6;;
70014;SDS011;57358;51.094;6.760;2024-01-10T05:00:24;5.2;;;10.8;;
70014;SDS011;57358;51.094;6.760;2024-01-10T05:05:23;6.7;;;16.8;;
70014;SDS011;57358;51.094;6.760;2024-01-10T05:10:22;6.1;;;13;;
70014;SDS011;57358;51.094;6.760;2024-01-10T05:15:21;6;;;16;;
70014;SDS011;57358;51.094;6.760;2024-01-10T05:20:19;6.4;;;18.9;;
70014;SDS011;57358;51.094;6.760;2024-01-10T05:25:18;7.1;;;14;;
70014;SDS011;57358;51.094;6.760;2024-01-10T05:30:17;6.4;;;12.6;;
70014;SDS011;57358;51.094;6.760;2024-01-10T05:35:16;6.6;;;13.8;;
70014;SDS011;57358;51.094;6.760;2024-01-10T05:40:15;6.3;;;15.5;;
70014;SDS011;57358;51.094;6.760;2024-01-10T05:45:14;6.9;;;13.9;;
70014;SDS011;57358;51.094;6.760;2024-01-10T05:50:12;6.6;;;18.1;;
70014;SDS011;57358;51.094;6.760;2024-01-10T05:55:11;7.7;;;14.4;;
70014;SDS011;57358;51.094;6.760;2024-01-10T06:00:10;6.2;;;13.3;;
70014;SDS011;57358;51.094;6.760;2024-01-10T06:05:09;6.9;;;14.7;;
70014;SDS011;57358;51.094;6.760;2024-01-10T06:10:08;6.3;;;16.1;;
70014;SDS011;57358;51.094;6.760;2024-01-10T06:15:07;7.2;;;18.2;;
70014;SDS011;57358;51.094;6.760;2024-01-10T06:20:06;6.3;;;13.2;;
70014;SDS011;57358;51.094;6.760;2024-01-10T06:25:04;7.2;;;17.6;;
70014;SDS011;57358;51.094;6.760;2024-01-10T06:30:03;6.4;;;14.6;;
70014;SDS011;57358;51.094;6.760;2024-01-10T06:35:02;7.2;;;17.2;;
70014;SDS011;57358;51.094;6.760;2024-01-10T06:40:01;7.2;;;16.9;;
70014;SDS011;57358;51.094;6.760;2024-01-10T06:44:59;7.8;;;18.1;;
70014;SDS011;57358;51.094;6.760;2024-01-10T06:49:58;7.1;;;15.8;;
70014;SDS011;57358;51.094;6.760;2024-01-10T06:54:57;10.5;;;20.6;;
70014;SDS011;57358;51.094;6.760;2024-01-10T06:59:56;7.8;;;18.8;;
70014;SDS011;57358;51.094;6.760;2024-01-10T07:04:55;9.6;;;20.1;;
70014;SDS011;57358;51.094;6.760;2024-01-10T07:09:54;7.3;;;15;;
70014;SDS011;57358;51.094;6.760;2024-01-10T07:14:52;8.1;;;18.4;;
70014;SDS011;57358;51.094;6.760;2024-01-10T07:19:51;8.5;;;17.5;;
70014;SDS011;57358;51.094;6.760;2024-01-10T07:24:50;9.1;;;23;;
70014;SDS011;57358;51.094;6.760;2024-01-10T07:29:49;10.7;;;25;;
70014;SDS011;57358;51.094;6.760;2024-01-10T07:34:48;8.9;;;18.8;;
70014;SDS011;57358;51.094;6.760;2024-01-10T07:39:47;8.8;;;19.9;;
70014;SDS011;57358;51.094;6.760;2024-01-10T07:44:45;8.3;;;17;;
70014;SDS011;57358;51.094;6.760;2024-01-10T07:49:44;7.8;;;17.4;;
70014;SDS011;57358;51.094;6.760;2024-01-10T07:54:43;7.7;;;19.3;;
70014;SDS011;57358;51.094;6.760;2024-01-10T07:59:42;6.9;;;15.8;;
70014;SDS011;57358;51.094;6.760;2024-01-10T08:04:41;8.1;;;18.7;;
70014;SDS011;57358;51.094;6.760;2024-01-10T08:09:40;7.2;;;15.9;;
70014;SDS011;57358;51.094;6.760;2024-01-10T08:14:39;6.2;;;12.9;;
70014;SDS011;57358;51.094;6.760;2024-01-10T08:19:38;8.2;;;16.7;;
70014;SDS011;57358;51.094;6.760;2024-01-10T08:24:36;8.6;;;23;;
70014;SDS011;57358;51.094;6.760;2024-01-10T08:29:35;12.1;;;26.8;;
70014;SDS011;57358;51.094;6.760;2024-01-10T08:34:34;8.9;;;21.8;;
70014;SDS011;57358;51.094;6.760;2024-01-10T08:39:33;25.4;;;62.8;;
70014;SDS011;57358;51.094;6.760;2024-01-10T08:44:32;14;;;34;;
70014;SDS011;57358;51.094;6.760;2024-01-10T08:49:31;15.5;;;41;;
70014;SDS011;57358;51.094;6.760;2024-01-10T08:54:29;12.1;;;31.8;;
70014;SDS011;57358;51.094;6.760;2024-01-10T08:59:28;14.6;;;36.2;;
70014;SDS011;57358;51.094;6.760;2024-01-10T09:04:27;12.7;;;30.9;;
70014;SDS011;57358;51.094;6.760;2024-01-10T09:09:26;16.8;;;46.6;;
70014;SDS011;57358;51.094;6.760;2024-01-10T09:14:25;17.3;;;42.9;;
70014;SDS011;57358;51.094;6.760;2024-01-10T09:19:24;43.3;;;133.1;;
70014;SDS011;57358;51.094;6.760;2024-01-10T09:24:22;47.9;;;147.1;;
70014;SDS011;57358;51.094;6.760;2024-01-10T09:29:22;23.3;;;65;;
70014;SDS011;57358;51.094;6.760;2024-01-10T09:34:20;21.2;;;55.7;;
70014;SDS011;57358;51.094;6.760;2024-01-10T09:39:19;11.6;;;26.4;;
70014;SDS011;57358;51.094;6.760;2024-01-10T09:44:18;9.8;;;26.7;;
70014;SDS011;57358;51.094;6.760;2024-01-10T09:49:17;8.5;;;17.1;;
70014;SDS011;57358;51.094;6.760;2024-01-10T09:54:16;8.4;;;19.6;;
70014;SDS011;57358;51.094;6.760;2024-01-10T09:59:15;9.8;;;22.8;;
70014;SDS011;57358;51.094;6.760;2024-01-10T10:04:14;8.7;;;20.9;;
70014;SDS011;57358;51.094;6.760;2024-01-10T10:09:12;9.3;;;23.1;;
70014;SDS011;57358;51.094;6.760;2024-01-10T10:14:15;8.4;;;24.2;;
70014;SDS011;57358;51.094;6.760;2024-01-10T10:19:10;8.5;;;17.5;;
70014;SDS011;57358;51.094;6.760;2024-01-10T10:24:09;7.9;;;20.5;;
70014;SDS011;57358;51.094;6.760;2024-01-10T10:29:08;8.8;;;21.3;;
70014;SDS011;57358;51.094;6.760;2024-01-10T10:34:07;8.6;;;16;;
70014;SDS011;57358;51.094;6.760;2024-01-10T10:39:06;8.6;;;18;;
70014;SDS011;57358;51.094;6.760;2024-01-10T10:44:05;9.4;;;19.1;;
70014;SDS011;57358;51.094;6.760;2024-01-10T10:49:05;9.7;;;22.6;;
70014;SDS011;57358;51.094;6.760;2024-01-10T10:54:03;8.7;;;18.9;;
70014;SDS011;57358;51.094;6.760;2024-01-10T10:59:02;8.7;;;17.6;;
70014;SDS011;57358;51.094;6.760;2024-01-10T11:04:01;9;;;19;;
70014;SDS011;57358;51.094;6.760;2024-01-10T11:09:01;10.6;;;28.2;;
70014;SDS011;57358;51.094;6.760;2024-01-10T11:14:03;9.4;;;20.3;;
70014;SDS011;57358;51.094;6.760;2024-01-10T11:19:03;9.2;;;18.9;;
70014;SDS011;57358;51.094;6.760;2024-01-10T11:23:58;8.8;;;23.4;;
70014;SDS011;57358;51.094;6.760;2024-01-10T11:28:56;9.9;;;18.8;;
70014;SDS011;57358;51.094;6.760;2024-01-10T11:33:55;8.9;;;19.3;;
70014;SDS011;57358;51.094;6.760;2024-01-10T11:38:54;9.9;;;23.5;;
70014;SDS011;57358;51.094;6.760;2024-01-10T11:44:25;9.3;;;22.8;;
70014;SDS011;57358;51.094;6.760;2024-01-10T11:48:52;10.1;;;21.8;;
70014;SDS011;57358;51.094;6.760;2024-01-10T11:53:51;9.1;;;20.2;;
70014;SDS011;57358;51.094;6.760;2024-01-10T11:58:53;9.8;;;21.4;;
70014;SDS011;57358;51.094;6.760;2024-01-10T12:03:50;9.2;;;22.6;;
70014;SDS011;57358;51.094;6.760;2024-01-10T12:08:48;8.9;;;22.1;;
70014;SDS011;57358;51.094;6.760;2024-01-10T12:13:47;10.4;;;24.3;;
70014;SDS011;57358;51.094;6.760;2024-01-10T12:18:45;11.7;;;31.7;;
70014;SDS011;57358;51.094;6.760;2024-01-10T12:23:44;12.2;;;31.8;;
70014;SDS011;57358;51.094;6.760;2024-01-10T12:28:52;11.6;;;23.5;;
70014;SDS011;57358;51.094;6.760;2024-01-10T12:33:42;10.7;;;30.3;;
70014;SDS011;57358;51.094;6.760;2024-01-10T12:38:41;11.7;;;27.1;;
70014;SDS011;57358;51.094;6.760;2024-01-10T12:43:40;11.2;;;26.4;;
70014;SDS011;57358;51.094;6.760;2024-01-10T12:48:40;10.1;;;22.7;;
70014;SDS011;57358;51.094;6.760;2024-01-10T12:53:39;10.7;;;24;;
70014;SDS011;57358;51.094;6.760;2024-01-10T12:58:37;11.1;;;22;;
70014;SDS011;57358;51.094;6.760;2024-01-10T13:03:37;11;;;26.3;;
70014;SDS011;57358;51.094;6.760;2024-01-10T13:08:35;12.4;;;27;;
70014;SDS011;57358;51.094;6.760;2024-01-10T13:13:34;10.7;;;25.9;;
70014;SDS011;57358;51.094;6.760;2024-01-10T13:18:33;10.4;;;21.5;;
70014;SDS011;57358;51.094;6.760;2024-01-10T13:23:32;9.8;;;22.6;;
70014;SDS011;57358;51.094;6.760;2024-01-10T13:28:31;10.9;;;21.2;;
70014;SDS011;57358;51.094;6.760;2024-01-10T13:33:30;10.7;;;24.3;;
70014;SDS011;57358;51.094;6.760;2024-01-10T13:38:29;11.5;;;31.4;;
70014;SDS011;57358;51.094;6.760;2024-01-10T13:43:28;12.6;;;28.8;;
70014;SDS011;57358;51.094;6.760;2024-01-10T13:48:27;11.2;;;29;;
70014;SDS011;57358;51.094;6.760;2024-01-10T13:53:26;11.3;;;25;;
70014;SDS011;57358;51.094;6.760;2024-01-10T13:58:25;11;;;23.3;;
70014;SDS011;57358;51.094;6.760;2024-01-10T14:03:24;10.8;;;25.3;;
70014;SDS011;57358;51.094;6.760;2024-01-10T14:08:23;10.2;;;24.7;;
70014;SDS011;57358;51.094;6.760;2024-01-10T14:13:22;11.2;;;25.4;;
70014;SDS011;57358;51.094;6.760;2024-01-10T14:18:21;11.8;;;24;;
70014;SDS011;57358;51.094;6.760;2024-01-10T14:23:20;10.9;;;22.3;;
70014;SDS011;57358;51.094;6.760;2024-01-10T14:28:19;12.4;;;27.7;;
70014;SDS011;57358;51.094;6.760;2024-01-10T14:33:18;12.6;;;33.3;;
70014;SDS011;57358;51.094;6.760;2024-01-10T14:38:17;13.1;;;26.8;;
70014;SDS011;57358;51.094;6.760;2024-01-10T14:43:16;13.5;;;31.7;;
70014;SDS011;57358;51.094;6.760;2024-01-10T14:48:15;15.9;;;36.2;;
70014;SDS011;57358;51.094;6.760;2024-01-10T14:53:14;15.9;;;29.6;;
70014;SDS011;57358;51.094;6.760;2024-01-10T14:58:13;14;;;26.4;;
70014;SDS011;57358;51.094;6.760;2024-01-10T15:03:12;14.8;;;32.7;;
70014;SDS011;57358;51.094;6.760;2024-01-10T15:08:11;12.6;;;29.2;;
70014;SDS011;57358;51.094;6.760;2024-01-10T15:13:10;11.9;;;26.9;;
70014;SDS011;57358;51.094;6.760;2024-01-10T15:18:09;15.4;;;33.9;;
70014;SDS011;57358;51.094;6.760;2024-01-10T15:23:08;14.5;;;28.4;;
70014;SDS011;57358;51.094;6.760;2024-01-10T15:28:07;12.7;;;31.6;;
70014;SDS011;57358;51.094;6.760;2024-01-10T15:33:06;12.4;;;23.9;;
70014;SDS011;57358;51.094;6.760;2024-01-10T15:38:05;22.6;;;41.6;;
70014;SDS011;57358;51.094;6.760;2024-01-10T15:43:04;25.9;;;68.2;;
70014;SDS011;57358;51.094;6.760;2024-01-10T15:48:03;13;;;29;;
70014;SDS011;57358;51.094;6.760;2024-01-10T15:53:02;18.8;;;50;;
70014;SDS011;57358;51.094;6.760;2024-01-10T15:58:01;19.6;;;51.5;;
70014;SDS011;57358;51.094;6.760;2024-01-10T16:03:00;22.1;;;57.3;;
70014;SDS011;57358;51.094;6.760;2024-01-10T16:07:59;17.5;;;38.6;;
70014;SDS011;57358;51.094;6.760;2024-01-10T16:12:58;14.4;;;32.7;;
70014;SDS011;57358;51.094;6.760;2024-01-10T16:17:57;12.7;;;30.8;;
70014;SDS011;57358;51.094;6.760;2024-01-10T16:22:56;14;;;30.7;;
70014;SDS011;57358;51.094;6.760;2024-01-10T16:27:55;14.5;;;29.8;;
70014;SDS011;57358;51.094;6.760;2024-01-10T16:32:54;13.4;;;32.1;;
70014;SDS011;57358;51.094;6.760;2024-01-10T16:37:53;14.4;;;32.6;;
70014;SDS011;57358;51.094;6.760;2024-01-10T16:42:52;17.1;;;36.8;;
70014;SDS011;57358;51.094;6.760;2024-01-10T16:47:50;14.9;;;32.3;;
70014;SDS011;57358;51.094;6.760;2024-01-10T16:52:49;15.7;;;34.3;;
70014;SDS011;57358;51.094;6.760;2024-01-10T16:57:48;24;;;62.2;;
70014;SDS011;57358;51.094;6.760;2024-01-10T17:02:47;16.2;;;35.6;;
70014;SDS011;57358;51.094;6.760;2024-01-10T17:07:46;15.1;;;37.8;;
70014;SDS011;57358;51.094;6.760;2024-01-10T17:12:45;15.8;;;34.6;;
70014;SDS011;57358;51.094;6.760;2024-01-10T17:17:44;14;;;34.8;;
70014;SDS011;57358;51.094;6.760;2024-01-10T17:22:43;12.8;;;29.7;;
70014;SDS011;57358;51.094;6.760;2024-01-10T17:27:42;15.1;;;35.6;;
70014;SDS011;57358;51.094;6.760;2024-01-10T17:32:41;13.7;;;30.8;;
70014;SDS011;57358;51.094;6.760;2024-01-10T17:37:40;13.2;;;32.1;;
70014;SDS011;57358;51.094;6.760;2024-01-10T17:42:39;14.5;;;29.3;;
70014;SDS011;57358;51.094;6.760;2024-01-10T17:47:38;15.9;;;36.8;;
70014;SDS011;57358;51.094;6.760;2024-01-10T17:52:37;22.6;;;59.4;;
70014;SDS011;57358;51.094;6.760;2024-01-10T17:57:36;20.6;;;48.3;;
70014;SDS011;57358;51.094;6.760;2024-01-10T18:02:35;19.4;;;44.3;;
70014;SDS011;57358;51.094;6.760;2024-01-10T18:07:34;16.4;;;37.2;;
70014;SDS011;57358;51.094;6.760;2024-01-10T18:12:33;14.8;;;34;;
70014;SDS011;57358;51.094;6.760;2024-01-10T18:17:32;15.8;;;36.4;;
70014;SDS011;57358;51.094;6.760;2024-01-10T18:22:30;16.2;;;37.6;;
70014;SDS011;57358;51.094;6.760;2024-01-10T18:27:29;15.5;;;36.3;;
70014;SDS011;57358;51.094;6.760;2024-01-10T18:32:28;14.7;;;36.6;;
70014;SDS011;57358;51.094;6.760;2024-01-10T18:37:27;14.2;;;32.4;;
70014;SDS011;57358;51.094;6.760;2024-01-10T18:42:26;15.7;;;36.8;;
70014;SDS011;57358;51.094;6.760;2024-01-10T18:47:25;33.2;;;71.3;;
70014;SDS011;57358;51.094;6.760;2024-01-10T18:52:24;21.7;;;45;;
70014;SDS011;57358;51.094;6.760;2024-01-10T18:57:23;17.2;;;39.2;;
70014;SDS011;57358;51.094;6.760;2024-01-10T19:02:22;16.2;;;37.9;;
70014;SDS011;57358;51.094;6.760;2024-01-10T19:07:21;19.8;;;43.4;;
70014;SDS011;57358;51.094;6.760;2024-01-10T19:12:20;17.6;;;43.6;;
70014;SDS011;57358;51.094;6.760;2024-01-10T19:17:19;14;;;40;;
70014;SDS011;57358;51.094;6.760;2024-01-10T19:22:18;15;;;35.3;;
70014;SDS011;57358;51.094;6.760;2024-01-10T19:27:16;14;;;31;;
70014;SDS011;57358;51.094;6.760;2024-01-10T19:32:15;39.3;;;93.2;;
70014;SDS011;57358;51.094;6.760;2024-01-10T19:37:14;23.6;;;57.7;;
70014;SDS011;57358;51.094;6.760;2024-01-10T19:42:13;24.6;;;53.8;;
70014;SDS011;57358;51.094;6.760;2024-01-10T19:47:12;26.5;;;69.3;;
70014;SDS011;57358;51.094;6.760;2024-01-10T19:52:11;33.4;;;90.8;;
70014;SDS011;57358;51.094;6.760;2024-01-10T19:57:10;27.6;;;79;;
70014;SDS011;57358;51.094;6.760;2024-01-10T20:02:09;24.5;;;67.2;;
70014;SDS011;57358;51.094;6.760;2024-01-10T20:07:08;21;;;48.4;;
70014;SDS011;57358;51.094;6.760;2024-01-10T20:12:07;19.9;;;47.8;;
70014;SDS011;57358;51.094;6.760;2024-01-10T20:17:06;19.6;;;48.9;;
70014;SDS011;57358;51.094;6.760;2024-01-10T20:22:05;17.9;;;43.6;;
70014;SDS011;57358;51.094;6.760;2024-01-10T20:27:03;18;;;46.1;;
70014;SDS011;57358;51.094;6.760;2024-01-10T20:32:02;17.7;;;44.3;;
70014;SDS011;57358;51.094;6.760;2024-01-10T20:37:01;17;;;40.7;;
70014;SDS011;57358;51.094;6.760;2024-01-10T20:42:00;19.6;;;48.9;;
70014;SDS011;57358;51.094;6.760;2024-01-10T20:46:59;17.4;;;40;;
70014;SDS011;57358;51.094;6.760;2024-01-10T20:51:58;18;;;45.9;;
70014;SDS011;57358;51.094;6.760;2024-01-10T20:56:57;19.6;;;44.9;;
70014;SDS011;57358;51.094;6.760;2024-01-10T21:01:56;17.2;;;46.8;;
70014;SDS011;57358;51.094;6.760;2024-01-10T21:06:55;15.6;;;36.3;;
70014;SDS011;57358;51.094;6.760;2024-01-10T21:11:53;18.1;;;41.9;;
70014;SDS011;57358;51.094;6.760;2024-01-10T21:16:52;21;;;55.2;;
70014;SDS011;57358;51.094;6.760;2024-01-10T21:21:51;18.6;;;46.2;;
70014;SDS011;57358;51.094;6.760;2024-01-10T21:26:50;18.2;;;44.8;;
70014;SDS011;57358;51.094;6.760;2024-01-10T21:31:49;22.1;;;59;;
70014;SDS011;57358;51.094;6.760;2024-01-10T21:36:48;20;;;57.6;;
70014;SDS011;57358;51.094;6.760;2024-01-10T21:41:47;22.4;;;56.2;;
70014;SDS011;57358;51.094;6.760;2024-01-10T21:46:46;27.9;;;68.2;;
70014;SDS011;57358;51.094;6.760;2024-01-10T21:51:44;20;;;47.6;;
70014;SDS011;57358;51.094;6.760;2024-01-10T21:56:43;17.4;;;46.2;;
70014;SDS011;57358;51.094;6.760;2024-01-10T22:01:42;18;;;45.9;;
70014;SDS011;57358;51.094;6.760;2024-01-10T22:06:41;22;;;58;;
70014;SDS011;57358;51.094;6.760;2024-01-10T22:11:40;21.3;;;61.2;;
70014;SDS011;57358;51.094;6.760;2024-01-10T22:16:39;18;;;45.8;;
70014;SDS011;57358;51.094;6.760;2024-01-10T22:21:38;34.4;;;86.1;;
70014;SDS011;57358;51.094;6.760;2024-01-10T22:26:37;25.1;;;60.7;;
70014;SDS011;57358;51.094;6.760;2024-01-10T22:31:35;24.6;;;61.5;;
70014;SDS011;57358;51.094;6.760;2024-01-10T22:36:34;20.4;;;52.8;;
70014;SDS011;57358;51.094;6.760;2024-01-10T22:41:33;20.7;;;64.3;;
70014;SDS011;57358;51.094;6.760;2024-01-10T22:46:32;22.3;;;52.9;;
70014;SDS011;57358;51.094;6.760;2024-01-10T22:51:31;32.1;;;84;;
70014;SDS011;57358;51.094;6.760;2024-01-10T22:56:30;23.6;;;68.1;;
70014;SDS011;57358;51.094;6.760;2024-01-10T23:01:29;19;;;54.2;;
70014;SDS011;57358;51.094;6.760;2024-01-10T23:06:28;21.7;;;52.1;;
70014;SDS011;57358;51.094;6.760;2024-01-10T23:11:27;19.8;;;53.2;;
70014;SDS011;57358;51.094;6.760;2024-01-10T23:16:25;20.5;;;49.8;;
70014;SDS011;57358;51.094;6.760;2024-01-10T23:21:24;18.4;;;48.8;;
70014;SDS011;57358;51.094;6.760;2024-01-10T23:26:23;23.3;;;54.7;;
70014;SDS011;57358;51.094;6.760;2024-01-10T23:31:22;21.5;;;53.9;;
70014;SDS011;57358;51.094;6.760;2024-01-10T23:36:21;18.7;;;44.4;;
70014;SDS011;57358;51.094;6.760;2024-01-10T23:41:20;19.9;;;44.1;;
70014;SDS011;57358;51.094;6.760;2024-01-10T23:46:19;18.7;;;43.2;;
70014;SDS011;57358;51.094;6.760;2024-01-10T23:51:18;17.7;;;44;;
70014;SDS011;57358;51.094;6.760;2024-01-10T23:56:16;17.6;;;45.1;;
